createdAt,value
2019-01-10T00:00:59.980Z,5.10
2019-01-10T00:03:32.743Z,4.90
2019-01-10T00:06:05.611Z,4.90
2019-01-10T00:08:38.949Z,5.00
2019-01-10T00:11:11.659Z,5.10
2019-01-10T00:13:44.103Z,5.00
2019-01-10T00:16:16.403Z,5.00
2019-01-10T00:18:48.849Z,5.00
2019-01-10T00:21:21.781Z,5.00
2019-01-10T00:23:55.343Z,4.90
2019-01-10T00:26:28.823Z,4.90
2019-01-10T00:29:01.494Z,4.80
2019-01-10T00:31:35.344Z,4.80
2019-01-10T00:34:08.289Z,4.90
2019-01-10T00:36:40.549Z,4.90
2019-01-10T00:39:13.029Z,4.90
2019-01-10T00:41:45.564Z,4.70
2019-01-10T00:44:19.218Z,4.80
2019-01-10T00:46:52.038Z,4.80
2019-01-10T00:49:24.734Z,4.90
2019-01-10T00:51:57.082Z,4.90
2019-01-10T00:54:29.430Z,4.80
2019-01-10T00:57:02.264Z,4.80
2019-01-10T00:59:35.038Z,4.80
2019-01-10T01:02:07.398Z,4.80
2019-01-10T01:04:41.153Z,4.70
2019-01-10T01:07:13.834Z,4.50
2019-01-10T01:09:46.714Z,4.40
2019-01-10T01:12:19.285Z,4.40
2019-01-10T01:14:51.674Z,4.40
2019-01-10T01:17:24.374Z,4.50
2019-01-10T01:19:57.324Z,4.60
2019-01-10T01:22:29.543Z,4.60
2019-01-10T01:25:01.969Z,4.60
2019-01-10T01:27:34.534Z,4.40
2019-01-10T01:30:09.878Z,4.30
2019-01-10T01:32:43.418Z,4.40
2019-01-10T01:35:17.008Z,4.40
2019-01-10T01:37:49.259Z,4.40
2019-01-10T01:40:22.303Z,4.40
2019-01-10T01:42:54.793Z,4.40
2019-01-10T01:45:27.533Z,4.50
2019-01-10T01:48:00.159Z,4.40
2019-01-10T01:50:34.334Z,4.30
2019-01-10T01:53:06.663Z,4.20
2019-01-10T01:55:39.513Z,4.20
2019-01-10T01:58:12.019Z,4.20
2019-01-10T02:00:44.634Z,4.20
2019-01-10T02:03:17.444Z,4.20
2019-01-10T02:05:51.588Z,4.30
2019-01-10T02:08:23.898Z,4.30
2019-01-10T02:10:56.419Z,4.30
2019-01-10T02:13:29.348Z,4.20
2019-01-10T02:16:02.061Z,3.90
2019-01-10T02:18:34.295Z,3.90
2019-01-10T02:21:07.179Z,4.00
2019-01-10T02:23:39.978Z,4.20
2019-01-10T02:26:13.048Z,4.10
2019-01-10T02:28:45.219Z,4.10
2019-01-10T02:31:19.037Z,4.10
2019-01-10T02:33:52.993Z,4.10
2019-01-10T02:36:25.560Z,4.00
2019-01-10T02:39:00.729Z,3.90
2019-01-10T02:41:33.536Z,3.80
2019-01-10T02:44:06.559Z,3.70
2019-01-10T02:46:39.394Z,3.80
2019-01-10T02:49:11.999Z,3.70
2019-01-10T02:51:44.860Z,3.60
2019-01-10T02:54:17.240Z,3.60
2019-01-10T02:56:50.358Z,3.90
2019-01-10T02:59:23.175Z,3.60
2019-01-10T03:01:56.564Z,3.50
2019-01-10T03:04:29.635Z,3.50
2019-01-10T03:07:02.390Z,3.50
2019-01-10T03:09:35.108Z,3.50
2019-01-10T03:12:08.317Z,3.60
2019-01-10T03:14:40.678Z,3.50
2019-01-10T03:17:13.420Z,3.60
2019-01-10T03:19:46.845Z,3.50
2019-01-10T03:22:19.655Z,3.50
2019-01-10T03:24:52.740Z,3.40
2019-01-10T03:27:26.189Z,3.50
2019-01-10T03:29:58.580Z,3.50
2019-01-10T03:32:31.596Z,3.40
2019-01-10T03:35:07.330Z,3.30
2019-01-10T03:37:40.124Z,3.30
2019-01-10T03:40:22.079Z,3.40
2019-01-10T03:42:54.898Z,3.50
2019-01-10T03:45:32.539Z,3.40
2019-01-10T03:48:05.263Z,3.50
2019-01-10T03:50:37.957Z,3.40
2019-01-10T03:53:10.838Z,3.40
2019-01-10T03:55:43.640Z,3.40
2019-01-10T03:58:16.346Z,3.40
2019-01-10T04:00:49.705Z,3.50
2019-01-10T04:03:22.459Z,3.50
2019-01-10T04:05:55.338Z,3.50
2019-01-10T04:08:28.129Z,3.30
2019-01-10T04:11:00.469Z,3.20
2019-01-10T04:13:33.299Z,3.10
2019-01-10T04:16:05.780Z,3.20
2019-01-10T04:18:38.718Z,3.20
2019-01-10T04:21:17.017Z,3.20
2019-01-10T04:23:46.200Z,3.20
2019-01-10T04:26:19.079Z,3.30
2019-01-10T04:28:51.909Z,3.30
2019-01-10T04:31:24.461Z,3.40
2019-01-10T04:33:57.184Z,3.20
2019-01-10T04:36:30.899Z,3.20
2019-01-10T04:39:03.680Z,3.20
2019-01-10T04:41:36.699Z,3.20
2019-01-10T04:44:10.163Z,3.10
2019-01-10T04:46:43.219Z,3.10
2019-01-10T04:49:16.104Z,3.20
2019-01-10T04:51:48.465Z,3.20
2019-01-10T04:54:20.997Z,3.30
2019-01-10T04:56:53.390Z,3.40
2019-01-10T04:59:26.460Z,3.40
2019-01-10T05:01:59.059Z,3.50
2019-01-10T05:04:31.965Z,3.40
2019-01-10T05:07:04.761Z,3.40
2019-01-10T05:09:39.078Z,3.40
2019-01-10T05:12:12.518Z,3.30
2019-01-10T05:14:45.042Z,3.30
2019-01-10T05:17:17.958Z,3.30
2019-01-10T05:19:50.949Z,3.30
2019-01-10T05:22:24.109Z,3.30
2019-01-10T05:24:57.099Z,3.30
2019-01-10T05:27:29.518Z,3.20
2019-01-10T05:30:02.259Z,3.20
2019-01-10T05:32:34.715Z,3.20
2019-01-10T05:35:07.421Z,3.20
2019-01-10T05:37:41.559Z,3.30
2019-01-10T05:40:14.393Z,3.30
2019-01-10T05:42:46.895Z,3.30
2019-01-10T05:45:19.554Z,3.30
2019-01-10T05:47:52.498Z,3.40
2019-01-10T05:50:25.737Z,3.40
2019-01-10T05:52:59.524Z,3.30
2019-01-10T05:55:32.964Z,3.40
2019-01-10T05:58:05.921Z,3.50
2019-01-10T06:00:39.040Z,3.50
2019-01-10T06:03:12.483Z,3.50
2019-01-10T06:05:45.079Z,3.40
2019-01-10T06:08:17.609Z,3.40
2019-01-10T06:10:50.751Z,3.50
2019-01-10T06:13:23.199Z,3.60
2019-01-10T06:15:56.499Z,3.70
2019-01-10T06:18:30.243Z,3.80
2019-01-10T06:21:02.789Z,3.90
2019-01-10T06:23:35.519Z,3.90
2019-01-10T06:26:08.179Z,4.10
2019-01-10T06:28:41.018Z,4.30
2019-01-10T06:31:14.103Z,4.50
2019-01-10T06:33:46.939Z,4.60
2019-01-10T06:36:19.768Z,4.70
2019-01-10T06:38:53.439Z,4.80
2019-01-10T06:41:26.554Z,4.90
2019-01-10T06:43:59.008Z,5.00
2019-01-10T06:46:32.145Z,5.00
2019-01-10T06:49:05.063Z,5.00
2019-01-10T06:51:37.938Z,5.10
2019-01-10T06:54:10.243Z,5.10
2019-01-10T06:56:44.526Z,5.30
2019-01-10T06:59:16.693Z,5.20
2019-01-10T07:01:49.648Z,5.30
2019-01-10T07:04:22.081Z,5.30
2019-01-10T07:06:54.778Z,5.40
2019-01-10T07:09:27.638Z,5.60
2019-01-10T07:12:00.168Z,5.80
2019-01-10T07:14:32.623Z,5.80
2019-01-10T07:17:05.629Z,5.90
2019-01-10T07:19:50.608Z,6.00
2019-01-10T07:22:23.538Z,6.20
2019-01-10T07:24:59.449Z,6.30
2019-01-10T07:27:32.279Z,6.40
2019-01-10T07:30:05.978Z,6.60
2019-01-10T07:32:38.748Z,6.50
2019-01-10T07:35:13.250Z,6.50
2019-01-10T07:37:50.779Z,6.40
2019-01-10T07:40:24.498Z,6.40
2019-01-10T07:42:57.423Z,6.40
2019-01-10T07:45:30.438Z,6.40
2019-01-10T07:48:02.945Z,6.60
2019-01-10T07:50:36.908Z,6.70
2019-01-10T07:53:11.028Z,6.80
2019-01-10T07:55:44.828Z,6.90
2019-01-10T07:58:17.508Z,6.90
2019-01-10T08:00:50.339Z,6.90
2019-01-10T08:03:23.239Z,6.80
2019-01-10T08:05:55.683Z,6.90
2019-01-10T08:08:29.084Z,6.90
2019-01-10T08:11:01.805Z,7.10
2019-01-10T08:13:34.483Z,7.00
2019-01-10T08:16:07.883Z,7.00
2019-01-10T08:18:40.810Z,7.10
2019-01-10T08:21:13.981Z,7.20
2019-01-10T08:23:46.683Z,7.20
2019-01-10T08:26:19.178Z,7.10
2019-01-10T08:28:54.722Z,7.20
2019-01-10T08:31:27.821Z,7.30
2019-01-10T08:34:00.638Z,7.40
2019-01-10T08:36:33.514Z,7.50
2019-01-10T08:39:08.588Z,7.60
2019-01-10T08:41:42.623Z,7.70
2019-01-10T08:44:15.709Z,7.70
2019-01-10T08:46:48.070Z,7.60
2019-01-10T08:49:21.039Z,7.50
2019-01-10T08:51:54.180Z,7.70
2019-01-10T08:54:27.011Z,7.70
2019-01-10T08:57:00.033Z,7.90
2019-01-10T08:59:33.038Z,7.90
2019-01-10T09:02:06.223Z,7.70
2019-01-10T09:04:38.959Z,7.70
2019-01-10T09:07:11.763Z,7.80
2019-01-10T09:09:44.525Z,7.90
2019-01-10T09:12:18.794Z,7.90
2019-01-10T09:14:51.489Z,7.80
2019-01-10T09:17:24.139Z,7.90
2019-01-10T09:19:56.614Z,7.90
2019-01-10T09:22:29.719Z,8.00
2019-01-10T09:25:02.317Z,8.00
2019-01-10T09:27:34.723Z,8.00
2019-01-10T09:30:09.455Z,8.00
2019-01-10T09:32:42.379Z,8.00
2019-01-10T09:35:15.058Z,8.10
2019-01-10T09:37:47.404Z,8.20
2019-01-10T09:40:21.413Z,8.20
2019-01-10T09:42:56.549Z,8.40
2019-01-10T09:45:29.094Z,8.50
2019-01-10T09:48:02.184Z,8.40
2019-01-10T09:50:34.899Z,8.50
2019-01-10T09:53:08.204Z,8.60
2019-01-10T09:55:41.119Z,8.60
2019-01-10T09:58:13.743Z,8.60
2019-01-10T10:00:46.228Z,8.60
2019-01-10T10:03:18.834Z,8.70
2019-01-10T10:05:51.704Z,8.70
2019-01-10T10:08:24.079Z,8.70
2019-01-10T10:10:56.647Z,8.80
2019-01-10T10:13:29.164Z,8.90
2019-01-10T10:16:02.249Z,8.90
2019-01-10T10:18:35.824Z,8.90
2019-01-10T10:21:09.743Z,8.90
2019-01-10T10:23:44.523Z,8.80
2019-01-10T10:26:17.408Z,8.80
2019-01-10T10:28:49.970Z,9.00
2019-01-10T10:31:22.844Z,9.10
2019-01-10T10:33:58.854Z,9.00
2019-01-10T10:36:31.957Z,9.00
2019-01-10T10:39:05.739Z,9.10
2019-01-10T10:41:40.557Z,9.20
2019-01-10T10:44:14.189Z,9.20
2019-01-10T10:46:47.039Z,9.20
2019-01-10T10:49:19.374Z,9.30
2019-01-10T10:51:52.724Z,9.10
2019-01-10T10:54:25.459Z,9.10
2019-01-10T10:56:58.820Z,9.10
2019-01-10T10:59:31.598Z,9.00
2019-01-10T11:02:04.679Z,9.00
2019-01-10T11:04:37.539Z,9.10
2019-01-10T11:07:10.823Z,9.20
2019-01-10T11:09:44.449Z,9.30
2019-01-10T11:12:17.598Z,9.30
2019-01-10T11:14:50.722Z,9.40
2019-01-10T11:17:26.239Z,9.40
2019-01-10T11:19:58.639Z,9.40
2019-01-10T11:22:31.299Z,9.40
2019-01-10T11:25:04.468Z,9.30
2019-01-10T11:27:36.878Z,9.30
2019-01-10T11:30:10.984Z,9.20
2019-01-10T11:32:44.201Z,9.20
2019-01-10T11:35:17.029Z,9.40
2019-01-10T11:37:50.238Z,9.30
2019-01-10T11:40:25.185Z,9.30
2019-01-10T11:42:57.979Z,9.50
2019-01-10T11:45:32.048Z,9.60
2019-01-10T11:48:04.889Z,9.50
2019-01-10T11:50:37.964Z,9.60
2019-01-10T11:53:10.617Z,9.70
2019-01-10T11:55:43.838Z,9.70
2019-01-10T11:58:16.864Z,9.70
2019-01-10T12:00:49.434Z,9.90
2019-01-10T12:03:22.531Z,10.00
2019-01-10T12:05:56.021Z,10.00
2019-01-10T12:08:29.039Z,10.10
2019-01-10T12:11:02.220Z,10.10
2019-01-10T12:13:35.199Z,10.10
2019-01-10T12:16:07.949Z,10.20
2019-01-10T12:18:40.924Z,10.30
2019-01-10T12:21:13.454Z,10.20
2019-01-10T12:23:46.564Z,10.20
2019-01-10T12:26:19.284Z,10.20
2019-01-10T12:28:52.034Z,10.30
2019-01-10T12:31:25.044Z,10.30
2019-01-10T12:33:58.513Z,10.20
2019-01-10T12:36:31.688Z,10.20
2019-01-10T12:39:04.735Z,10.20
2019-01-10T12:41:37.249Z,10.20
2019-01-10T12:44:09.819Z,10.20
2019-01-10T12:46:44.245Z,10.20
2019-01-10T12:49:17.279Z,10.40
2019-01-10T12:51:49.944Z,10.30
2019-01-10T12:54:22.694Z,10.30
2019-01-10T12:56:55.539Z,10.20
2019-01-10T12:59:28.804Z,10.30
2019-01-10T13:02:02.293Z,10.30
2019-01-10T13:04:35.729Z,10.30
2019-01-10T13:07:08.459Z,10.20
2019-01-10T13:09:41.229Z,10.30
2019-01-10T13:12:14.199Z,10.30
2019-01-10T13:14:46.835Z,10.40
2019-01-10T13:17:19.364Z,10.40
2019-01-10T13:19:52.447Z,10.30
2019-01-10T13:22:25.379Z,10.20
2019-01-10T13:24:57.881Z,10.20
2019-01-10T13:27:31.788Z,10.20
2019-01-10T13:30:04.628Z,10.10
2019-01-10T13:32:37.239Z,10.20
2019-01-10T13:35:10.739Z,10.10
2019-01-10T13:37:43.827Z,10.20
2019-01-10T13:40:17.497Z,10.20
2019-01-10T13:42:51.819Z,10.20
2019-01-10T13:45:25.008Z,10.10
2019-01-10T13:47:59.039Z,10.10
2019-01-10T13:50:33.204Z,10.00
2019-01-10T13:53:06.424Z,10.00
2019-01-10T13:55:39.034Z,10.00
2019-01-10T13:58:11.554Z,10.00
2019-01-10T14:00:44.434Z,10.00
2019-01-10T14:03:16.864Z,9.90
2019-01-10T14:05:49.579Z,9.90
2019-01-10T14:08:22.219Z,9.90
2019-01-10T14:10:54.654Z,9.80
2019-01-10T14:13:27.554Z,9.80
2019-01-10T14:16:00.769Z,9.70
2019-01-10T14:18:33.179Z,9.70
2019-01-10T14:21:06.339Z,9.70
2019-01-10T14:23:40.349Z,9.60
2019-01-10T14:26:13.103Z,9.50
2019-01-10T14:28:45.674Z,9.50
2019-01-10T14:31:18.759Z,9.50
2019-01-10T14:33:51.644Z,9.50
2019-01-10T14:36:24.869Z,9.40
2019-01-10T14:38:57.579Z,9.30
2019-01-10T14:41:30.630Z,9.20
2019-01-10T14:44:03.464Z,9.20
2019-01-10T14:46:36.563Z,9.20
2019-01-10T14:49:10.049Z,9.10
2019-01-10T14:51:42.799Z,9.00
2019-01-10T14:54:15.334Z,9.00
2019-01-10T14:56:48.739Z,8.90
2019-01-10T14:59:21.280Z,8.90
2019-01-10T15:01:54.039Z,8.90
2019-01-10T15:04:27.339Z,8.80
2019-01-10T15:07:00.359Z,8.80
2019-01-10T15:09:33.044Z,8.70
2019-01-10T15:12:07.560Z,8.70
2019-01-10T15:14:40.183Z,8.70
2019-01-10T15:17:13.950Z,8.70
2019-01-10T15:19:47.140Z,8.70
2019-01-10T15:22:20.204Z,8.60
2019-01-10T15:24:53.019Z,8.60
2019-01-10T15:27:26.056Z,8.60
2019-01-10T15:29:58.616Z,8.50
2019-01-10T15:32:31.879Z,8.60
2019-01-10T15:35:04.553Z,8.50
2019-01-10T15:37:37.460Z,8.50
2019-01-10T15:40:13.079Z,8.40
2019-01-10T15:42:45.919Z,8.40
2019-01-10T15:45:18.583Z,8.40
2019-01-10T15:47:51.699Z,8.40
2019-01-10T15:50:25.706Z,8.40
2019-01-10T15:52:58.884Z,8.40
2019-01-10T15:55:32.539Z,8.30
2019-01-10T15:58:05.509Z,8.30
2019-01-10T16:00:38.359Z,8.20
2019-01-10T16:03:12.275Z,8.10
2019-01-10T16:05:44.860Z,8.10
2019-01-10T16:08:18.136Z,8.00
2019-01-10T16:10:51.144Z,8.00
2019-01-10T16:13:23.845Z,8.00
2019-01-10T16:15:56.399Z,8.00
2019-01-10T16:18:28.944Z,7.90
2019-01-10T16:21:01.724Z,7.80
2019-01-10T16:23:34.104Z,7.80
2019-01-10T16:26:06.945Z,7.70
2019-01-10T16:28:39.479Z,7.80
2019-01-10T16:31:12.185Z,7.70
2019-01-10T16:33:45.331Z,7.60
2019-01-10T16:36:18.349Z,7.70
2019-01-10T16:38:50.894Z,7.80
2019-01-10T16:41:23.439Z,7.70
2019-01-10T16:43:56.162Z,7.60
2019-01-10T16:46:29.119Z,7.60
2019-01-10T16:49:02.634Z,7.50
2019-01-10T16:51:36.640Z,7.60
2019-01-10T16:54:09.141Z,7.60
2019-01-10T16:56:42.359Z,7.50
2019-01-10T16:59:15.219Z,7.50
2019-01-10T17:01:47.919Z,7.50
2019-01-10T17:04:21.104Z,7.40
2019-01-10T17:06:53.938Z,7.40
2019-01-10T17:09:26.319Z,7.30
2019-01-10T17:11:58.924Z,7.30
2019-01-10T17:14:31.859Z,7.30
2019-01-10T17:17:04.980Z,7.30
2019-01-10T17:19:37.814Z,7.30
2019-01-10T17:22:10.370Z,7.30
2019-01-10T17:24:43.579Z,7.20
2019-01-10T17:27:16.528Z,7.20
2019-01-10T17:29:49.610Z,7.30
2019-01-10T17:32:22.139Z,7.20
2019-01-10T17:34:54.595Z,7.20
2019-01-10T17:37:26.904Z,7.20
2019-01-10T17:39:59.739Z,7.20
2019-01-10T17:42:33.152Z,7.20
2019-01-10T17:45:06.440Z,7.20
2019-01-10T17:47:43.850Z,7.20
2019-01-10T17:50:16.584Z,7.10
2019-01-10T17:52:50.500Z,7.00
2019-01-10T17:55:23.299Z,7.10
2019-01-10T17:57:55.939Z,7.10
2019-01-10T18:00:32.334Z,7.20
2019-01-10T18:03:05.278Z,7.20
2019-01-10T18:05:39.882Z,7.10
2019-01-10T18:08:12.750Z,7.10
2019-01-10T18:10:45.669Z,7.20
2019-01-10T18:13:18.594Z,7.20
2019-01-10T18:15:52.009Z,7.10
2019-01-10T18:18:24.300Z,7.10
2019-01-10T18:20:57.334Z,7.00
2019-01-10T18:23:30.759Z,7.00
2019-01-10T18:26:03.524Z,7.00
2019-01-10T18:28:37.129Z,7.00
2019-01-10T18:31:14.884Z,7.00
2019-01-10T18:36:20.283Z,7.00
2019-01-10T18:38:54.229Z,7.00
2019-01-10T18:41:27.099Z,7.10
2019-01-10T18:43:59.282Z,7.00
2019-01-10T18:46:31.597Z,7.00
2019-01-10T18:49:04.079Z,7.00
2019-01-10T18:51:36.739Z,7.00
2019-01-10T18:54:11.588Z,7.00
2019-01-10T18:56:44.020Z,7.00
2019-01-10T18:59:16.809Z,6.90
2019-01-10T19:01:49.239Z,7.00
2019-01-10T19:04:21.989Z,7.00
2019-01-10T19:06:55.063Z,7.00
2019-01-10T19:09:27.899Z,6.90
2019-01-10T19:12:00.978Z,6.90
2019-01-10T19:14:34.540Z,6.90
2019-01-10T19:17:07.419Z,7.00
2019-01-10T19:19:40.269Z,6.90
2019-01-10T19:22:12.859Z,6.90
2019-01-10T19:24:45.722Z,6.90
2019-01-10T19:27:18.520Z,6.80
2019-01-10T19:29:51.300Z,6.90
2019-01-10T19:32:23.846Z,6.80
2019-01-10T19:34:57.156Z,6.90
2019-01-10T19:37:29.769Z,6.90
2019-01-10T19:40:02.439Z,6.80
2019-01-10T19:42:35.280Z,6.80
2019-01-10T19:45:08.742Z,6.80
2019-01-10T19:47:42.731Z,6.80
2019-01-10T19:50:17.986Z,6.80
2019-01-10T19:52:51.760Z,6.90
2019-01-10T19:55:26.179Z,6.80
2019-01-10T19:57:59.316Z,6.80
2019-01-10T20:00:44.630Z,7.00
2019-01-10T20:03:17.309Z,7.00
2019-01-10T20:05:50.339Z,7.00
2019-01-10T20:08:23.594Z,7.00
2019-01-10T20:10:56.362Z,7.00
2019-01-10T20:13:28.819Z,7.00
2019-01-10T20:16:01.589Z,7.00
2019-01-10T20:18:34.099Z,7.00
2019-01-10T20:21:07.366Z,7.00
2019-01-10T20:23:40.540Z,7.00
2019-01-10T20:26:13.613Z,7.00
2019-01-10T20:28:47.679Z,7.00
2019-01-10T20:31:20.449Z,7.00
2019-01-10T20:33:53.340Z,7.00
2019-01-10T20:36:26.529Z,6.90
2019-01-10T20:38:59.139Z,6.90
2019-01-10T20:41:32.720Z,6.90
2019-01-10T20:44:05.339Z,6.90
2019-01-10T20:46:38.019Z,6.80
2019-01-10T20:49:11.039Z,6.90
2019-01-10T20:51:43.930Z,6.80
2019-01-10T20:54:17.540Z,6.90
2019-01-10T20:56:51.830Z,6.90
2019-01-10T20:59:25.725Z,6.80
2019-01-10T21:02:01.359Z,6.80
2019-01-10T21:04:34.226Z,6.80
2019-01-10T21:07:07.109Z,6.80
2019-01-10T21:09:40.951Z,6.90
2019-01-10T21:12:13.444Z,6.90
2019-01-10T21:14:46.664Z,6.90
2019-01-10T21:17:19.449Z,6.90
2019-01-10T21:19:52.229Z,6.80
2019-01-10T21:22:24.739Z,6.90
2019-01-10T21:24:57.312Z,6.90
2019-01-10T21:27:29.849Z,6.80
2019-01-10T21:30:02.280Z,6.90
2019-01-10T21:32:40.848Z,6.90
2019-01-10T21:35:10.539Z,6.90
2019-01-10T21:37:43.504Z,6.80
2019-01-10T21:40:17.764Z,6.80
2019-01-10T21:42:52.419Z,6.80
2019-01-10T21:45:25.440Z,6.90
2019-01-10T21:47:58.299Z,6.80
2019-01-10T21:50:30.904Z,6.80
2019-01-10T21:53:04.526Z,6.90
2019-01-10T21:55:36.934Z,6.90
2019-01-10T21:58:10.974Z,6.80
2019-01-10T22:00:43.604Z,6.90
2019-01-10T22:03:16.390Z,6.90
2019-01-10T22:05:49.629Z,6.90
2019-01-10T22:08:22.229Z,6.80
2019-01-10T22:10:54.734Z,6.80
2019-01-10T22:13:27.189Z,6.80
2019-01-10T22:15:59.524Z,6.80
2019-01-10T22:18:32.159Z,6.70
2019-01-10T22:21:04.986Z,6.70
2019-01-10T22:23:37.644Z,6.70
2019-01-10T22:26:10.682Z,6.70
2019-01-10T22:28:43.219Z,6.60
2019-01-10T22:31:15.799Z,6.60
2019-01-10T22:33:49.779Z,6.60
2019-01-10T22:36:23.134Z,6.50
2019-01-10T22:38:55.704Z,6.50
2019-01-10T22:41:28.502Z,6.40
2019-01-10T22:44:01.380Z,6.30
2019-01-10T22:46:33.865Z,6.40
2019-01-10T22:49:06.144Z,6.40
2019-01-10T22:51:38.880Z,6.30
2019-01-10T22:54:10.938Z,6.30
2019-01-10T22:56:44.389Z,6.20
2019-01-10T22:59:18.339Z,6.10
2019-01-10T23:04:37.919Z,6.10
2019-01-10T23:07:39.854Z,6.20
2019-01-10T23:10:13.599Z,6.10
2019-01-10T23:12:46.466Z,6.10
2019-01-10T23:15:34.672Z,6.00
2019-01-10T23:18:08.559Z,6.00
2019-01-10T23:20:43.040Z,6.00
2019-01-10T23:23:15.992Z,5.90
2019-01-10T23:25:53.879Z,5.90
2019-01-10T23:28:27.909Z,5.90
2019-01-10T23:31:02.559Z,5.80
2019-01-10T23:33:34.884Z,5.80
2019-01-10T23:36:07.869Z,5.70
2019-01-10T23:38:40.299Z,5.90
2019-01-10T23:41:12.739Z,5.70
2019-01-10T23:43:45.479Z,5.80
2019-01-10T23:46:18.019Z,5.70
2019-01-10T23:48:50.474Z,5.70
2019-01-10T23:51:22.844Z,5.70
2019-01-10T23:53:55.929Z,5.60
2019-01-10T23:56:28.238Z,5.60
2019-01-10T23:59:00.644Z,5.60
